createdAt,value
2022-10-22T00:02:02.279Z,71.34
2022-10-22T00:04:34.368Z,70.92
2022-10-22T00:07:03.453Z,70.98
2022-10-22T00:09:30.740Z,71.18
2022-10-22T00:11:59.914Z,71.02
2022-10-22T00:14:27.225Z,70.95
2022-10-22T00:16:54.975Z,71.49
2022-10-22T00:19:22.342Z,71.16
2022-10-22T00:21:49.927Z,71.25
2022-10-22T00:24:17.298Z,71.10
2022-10-22T00:26:45.190Z,70.79
2022-10-22T00:29:14.208Z,70.89
2022-10-22T00:31:42.459Z,70.68
2022-10-22T00:34:09.731Z,70.65
2022-10-22T00:36:37.371Z,70.75
2022-10-22T00:39:04.758Z,70.95
2022-10-22T00:41:32.771Z,71.45
2022-10-22T00:44:02.008Z,70.44
2022-10-22T00:46:31.475Z,70.44
2022-10-22T00:49:02.917Z,71.43
2022-10-22T00:51:34.063Z,71.24
2022-10-22T00:54:06.479Z,71.51
2022-10-22T00:56:34.136Z,71.15
2022-10-22T00:59:03.257Z,70.86
2022-10-22T01:01:32.563Z,70.52
2022-10-22T01:04:00.703Z,70.65
2022-10-22T01:06:30.994Z,70.51
2022-10-22T01:09:15.335Z,70.47
2022-10-22T01:11:53.657Z,70.52
2022-10-22T01:14:27.604Z,71.40
2022-10-22T01:17:03.587Z,71.42
2022-10-22T01:19:54.108Z,71.74
2022-10-22T01:22:30.833Z,72.23
2022-10-22T01:25:02.091Z,72.00
2022-10-22T01:27:40.095Z,71.91
2022-10-22T01:30:11.855Z,71.83
2022-10-22T01:32:43.933Z,72.00
2022-10-22T01:35:14.426Z,72.12
2022-10-22T01:37:46.382Z,71.75
2022-10-22T01:40:15.987Z,71.66
2022-10-22T01:42:57.760Z,71.51
2022-10-22T01:45:28.096Z,71.15
2022-10-22T01:48:07.108Z,72.15
2022-10-22T01:51:06.109Z,71.80
2022-10-22T01:56:25.607Z,72.49
2022-10-22T01:59:02.238Z,72.46
2022-10-22T02:01:39.720Z,72.07
2022-10-22T02:04:15.795Z,72.75
2022-10-22T02:06:46.968Z,72.59
2022-10-22T02:09:17.890Z,73.02
2022-10-22T02:11:46.421Z,73.34
2022-10-22T02:14:16.205Z,73.15
2022-10-22T02:16:47.577Z,72.83
2022-10-22T02:19:19.913Z,72.95
2022-10-22T02:21:47.439Z,73.23
2022-10-22T02:24:15.949Z,73.27
2022-10-22T02:26:49.039Z,72.89
2022-10-22T02:29:21.948Z,73.48
2022-10-22T02:31:53.945Z,73.36
2022-10-22T02:34:25.761Z,73.36
2022-10-22T02:36:54.718Z,73.91
2022-10-22T02:39:22.852Z,74.52
2022-10-22T02:41:50.432Z,74.75
2022-10-22T02:44:21.789Z,74.55
2022-10-22T02:46:51.086Z,74.24
2022-10-22T02:49:18.957Z,74.37
2022-10-22T02:51:46.202Z,73.97
2022-10-22T02:54:14.285Z,73.70
2022-10-22T02:56:41.991Z,73.70
2022-10-22T02:59:10.288Z,73.25
2022-10-22T03:01:37.462Z,73.90
2022-10-22T03:04:07.434Z,73.28
2022-10-22T03:06:34.707Z,72.86
2022-10-22T03:09:05.325Z,72.63
2022-10-22T03:11:32.781Z,73.32
2022-10-22T03:14:00.605Z,73.38
2022-10-22T03:16:27.955Z,73.28
2022-10-22T03:18:56.027Z,72.87
2022-10-22T03:21:31.515Z,73.05
2022-10-22T03:24:01.954Z,73.08
2022-10-22T03:26:29.715Z,73.35
2022-10-22T03:28:58.126Z,73.88
2022-10-22T03:31:25.532Z,73.62
2022-10-22T03:33:53.287Z,73.33
2022-10-22T03:36:20.755Z,73.28
2022-10-22T03:38:50.691Z,73.00
2022-10-22T03:41:18.130Z,72.53
2022-10-22T03:43:46.104Z,72.44
2022-10-22T03:46:13.468Z,72.33
2022-10-22T03:48:41.464Z,72.07
2022-10-22T03:51:08.832Z,71.73
2022-10-22T03:53:36.723Z,71.89
2022-10-22T03:56:08.591Z,72.59
2022-10-22T03:58:36.429Z,72.15
2022-10-22T04:01:05.648Z,72.54
2022-10-22T04:03:33.952Z,72.23
2022-10-22T04:06:02.768Z,72.29
2022-10-22T04:08:30.875Z,72.17
2022-10-22T04:10:58.709Z,72.09
2022-10-22T04:13:28.275Z,71.70
2022-10-22T04:15:55.728Z,71.73
2022-10-22T04:18:24.125Z,71.45
2022-10-22T04:20:52.592Z,71.50
2022-10-22T04:23:20.744Z,72.27
2022-10-22T04:25:48.144Z,72.35
2022-10-22T04:28:15.801Z,73.56
2022-10-22T04:30:44.454Z,74.15
2022-10-22T04:33:12.088Z,74.08
2022-10-22T04:35:39.660Z,74.05
2022-10-22T04:38:07.392Z,75.10
2022-10-22T04:40:35.032Z,76.08
2022-10-22T04:43:02.794Z,76.46
2022-10-22T04:45:30.164Z,76.04
2022-10-22T04:47:59.467Z,75.56
2022-10-22T04:50:27.032Z,76.04
2022-10-22T04:52:54.854Z,76.24
2022-10-22T04:55:22.277Z,75.72
2022-10-22T04:57:50.037Z,75.91
2022-10-22T05:00:17.760Z,75.69
2022-10-22T05:02:49.994Z,75.50
2022-10-22T05:05:18.834Z,75.70
2022-10-22T05:07:46.758Z,75.88
2022-10-22T05:10:14.332Z,76.53
2022-10-22T05:12:42.027Z,76.67
2022-10-22T05:15:10.430Z,76.87
2022-10-22T05:17:38.361Z,76.69
2022-10-22T05:20:07.116Z,76.20
2022-10-22T05:22:38.276Z,76.63
2022-10-22T05:25:06.579Z,76.99
2022-10-22T05:27:34.173Z,75.87
2022-10-22T05:30:01.556Z,75.39
2022-10-22T05:32:29.238Z,75.61
2022-10-22T05:34:56.581Z,75.42
2022-10-22T05:37:30.071Z,75.36
2022-10-22T05:40:12.333Z,74.95
2022-10-22T05:42:46.504Z,75.12
2022-10-22T05:45:14.051Z,74.74
2022-10-22T05:47:41.646Z,74.73
2022-10-22T05:50:09.270Z,74.85
2022-10-22T05:52:36.968Z,74.25
2022-10-22T05:55:06.426Z,74.40
2022-10-22T05:57:34.777Z,73.67
2022-10-22T06:00:02.471Z,74.10
2022-10-22T06:02:30.570Z,73.46
2022-10-22T06:05:01.049Z,73.31
2022-10-22T06:07:29.586Z,72.81
2022-10-22T06:10:00.150Z,73.52
2022-10-22T06:12:29.779Z,73.57
2022-10-22T06:14:57.028Z,72.90
2022-10-22T06:17:24.929Z,73.01
2022-10-22T06:19:52.349Z,72.98
2022-10-22T06:22:20.212Z,73.92
2022-10-22T06:24:47.761Z,73.26
2022-10-22T06:27:16.055Z,73.18
2022-10-22T06:29:44.780Z,73.41
2022-10-22T06:32:12.406Z,72.88
2022-10-22T06:34:39.798Z,73.81
2022-10-22T06:37:07.751Z,72.90
2022-10-22T06:39:34.982Z,72.84
2022-10-22T06:42:02.592Z,73.90
2022-10-22T06:44:29.943Z,73.40
2022-10-22T06:46:59.164Z,73.75
2022-10-22T06:49:26.476Z,73.07
2022-10-22T06:51:54.842Z,72.76
2022-10-22T06:54:23.113Z,72.25
2022-10-22T06:56:51.199Z,72.20
2022-10-22T06:59:18.438Z,72.13
2022-10-22T07:01:46.599Z,72.20
2022-10-22T07:04:15.708Z,72.00
2022-10-22T07:06:43.268Z,72.07
2022-10-22T07:09:11.218Z,71.90
2022-10-22T07:11:41.650Z,72.92
2022-10-22T07:14:09.860Z,73.00
2022-10-22T07:16:37.609Z,73.10
2022-10-22T07:19:05.701Z,73.03
2022-10-22T07:21:35.292Z,73.12
2022-10-22T07:24:02.616Z,72.50
2022-10-22T07:26:30.928Z,72.68
2022-10-22T07:28:58.841Z,72.86
2022-10-22T07:31:27.540Z,72.40
2022-10-22T07:33:55.102Z,72.35
2022-10-22T07:36:23.051Z,72.27
2022-10-22T07:38:54.949Z,72.01
2022-10-22T07:41:23.078Z,71.91
2022-10-22T07:43:50.503Z,71.60
2022-10-22T07:46:18.165Z,72.28
2022-10-22T07:48:45.625Z,72.38
2022-10-22T07:51:15.306Z,72.06
2022-10-22T07:53:43.757Z,72.16
2022-10-22T07:56:13.067Z,73.23
2022-10-22T07:58:40.228Z,73.96
2022-10-22T08:01:08.179Z,74.20
2022-10-22T08:03:36.116Z,74.58
2022-10-22T08:06:04.145Z,74.68
2022-10-22T08:08:31.824Z,74.48
2022-10-22T08:11:01.233Z,74.30
2022-10-22T08:13:30.218Z,74.33
2022-10-22T08:15:58.746Z,74.90
2022-10-22T08:18:26.306Z,75.07
2022-10-22T08:20:54.467Z,74.95
2022-10-22T08:23:25.919Z,75.33
2022-10-22T08:25:57.147Z,75.66
2022-10-22T08:28:24.629Z,75.52
2022-10-22T08:30:53.991Z,76.27
2022-10-22T08:33:21.748Z,75.99
2022-10-22T08:35:49.714Z,76.26
2022-10-22T08:38:17.598Z,77.13
2022-10-22T08:43:41.658Z,77.27
2022-10-22T08:46:46.891Z,77.37
2022-10-22T08:49:20.667Z,77.80
2022-10-22T08:51:48.836Z,78.07
2022-10-22T08:54:28.038Z,79.13
2022-10-22T08:57:13.419Z,78.51
2022-10-22T08:59:46.150Z,78.85
2022-10-22T09:02:28.600Z,78.56
2022-10-22T09:05:11.496Z,78.09
2022-10-22T09:07:42.425Z,79.20
2022-10-22T09:10:12.806Z,79.06
2022-10-22T09:12:40.759Z,79.38
2022-10-22T09:15:13.509Z,78.62
2022-10-22T09:17:54.548Z,78.96
2022-10-22T09:20:27.336Z,78.93
2022-10-22T09:23:05.127Z,79.19
2022-10-22T09:25:36.608Z,79.32
2022-10-22T09:28:05.221Z,78.70
2022-10-22T09:30:36.500Z,78.54
2022-10-22T09:33:14.190Z,78.07
2022-10-22T09:35:47.196Z,78.49
2022-10-22T09:38:16.749Z,78.04
2022-10-22T09:40:45.888Z,78.12
2022-10-22T09:43:14.613Z,77.57
2022-10-22T09:45:42.814Z,78.00
2022-10-22T09:48:20.556Z,78.52
2022-10-22T09:50:49.644Z,77.81
2022-10-22T09:53:20.618Z,77.90
2022-10-22T09:58:22.254Z,77.63
2022-10-22T10:00:54.403Z,77.72
2022-10-22T10:03:26.247Z,77.04
2022-10-22T10:05:56.327Z,77.08
2022-10-22T10:08:25.285Z,78.55
2022-10-22T10:10:56.750Z,78.14
2022-10-22T10:13:35.516Z,77.65
2022-10-22T10:16:12.086Z,77.44
2022-10-22T10:18:55.838Z,77.68
2022-10-22T10:21:31.014Z,77.81
2022-10-22T10:24:06.111Z,77.81
2022-10-22T10:26:42.877Z,78.06
2022-10-22T10:29:24.826Z,78.00
2022-10-22T10:32:07.173Z,78.16
2022-10-22T10:34:43.864Z,78.62
2022-10-22T10:37:23.257Z,78.16
2022-10-22T10:40:12.438Z,77.59
2022-10-22T10:42:46.848Z,77.74
2022-10-22T10:45:19.070Z,77.64
2022-10-22T10:48:07.615Z,76.98
2022-10-22T10:50:48.872Z,77.27
2022-10-22T10:53:27.423Z,77.29
2022-10-22T10:56:01.747Z,77.21
2022-10-22T10:58:40.699Z,75.71
2022-10-22T11:01:20.090Z,74.83
2022-10-22T11:04:02.305Z,75.23
2022-10-22T11:06:34.229Z,73.75
2022-10-22T11:09:07.152Z,72.11
2022-10-22T11:11:41.437Z,72.92
2022-10-22T11:14:14.653Z,73.72
2022-10-22T11:16:46.719Z,73.27
2022-10-22T11:19:22.802Z,72.94
2022-10-22T11:22:02.029Z,75.09
2022-10-22T11:24:36.823Z,72.62
2022-10-22T11:27:13.302Z,73.80
2022-10-22T11:29:45.527Z,71.96
2022-10-22T11:32:17.592Z,73.71
2022-10-22T11:34:48.647Z,74.09
2022-10-22T11:37:18.885Z,73.71
2022-10-22T11:39:50.810Z,72.72
2022-10-22T11:42:21.195Z,72.02
2022-10-22T11:44:58.853Z,73.29
2022-10-22T11:47:29.002Z,73.06
2022-10-22T11:50:02.850Z,72.76
2022-10-22T11:52:55.594Z,73.16
2022-10-22T11:55:44.912Z,73.50
2022-10-22T11:58:29.062Z,72.89
2022-10-22T12:00:58.261Z,73.19
2022-10-22T12:03:39.788Z,73.60
2022-10-22T12:06:19.779Z,74.23
2022-10-22T12:08:53.808Z,74.87
2022-10-22T12:11:23.662Z,75.85
2022-10-22T12:13:58.268Z,75.58
2022-10-22T12:16:32.276Z,75.36
2022-10-22T12:19:12.836Z,76.54
2022-10-22T12:21:42.514Z,76.83
2022-10-22T12:24:14.750Z,76.81
2022-10-22T12:26:42.568Z,77.10
2022-10-22T12:29:13.553Z,76.85
2022-10-22T12:31:42.739Z,77.71
2022-10-22T12:34:15.077Z,77.89
2022-10-22T12:36:42.624Z,77.94
2022-10-22T12:39:15.136Z,78.20
2022-10-22T12:41:43.289Z,79.03
2022-10-22T12:44:13.332Z,77.44
2022-10-22T12:46:42.207Z,78.17
2022-10-22T12:49:15.772Z,78.56
2022-10-22T12:51:44.522Z,78.85
2022-10-22T12:54:23.292Z,79.07
2022-10-22T12:56:50.515Z,79.51
2022-10-22T13:02:17.450Z,80.04
2022-10-22T13:05:15.018Z,79.61
2022-10-22T13:07:44.975Z,79.60
2022-10-22T13:10:20.462Z,78.97
2022-10-22T13:12:54.134Z,79.77
2022-10-22T13:15:33.804Z,79.17
2022-10-22T13:18:06.995Z,79.83
2022-10-22T13:20:34.833Z,79.49
2022-10-22T13:23:03.405Z,79.35
2022-10-22T13:25:34.167Z,80.00
2022-10-22T13:28:10.859Z,80.02
2022-10-22T13:30:40.206Z,79.82
2022-10-22T13:33:22.440Z,79.85
2022-10-22T13:35:50.503Z,80.07
2022-10-22T13:38:20.462Z,79.53
2022-10-22T13:40:53.565Z,80.81
2022-10-22T13:43:21.127Z,81.32
2022-10-22T13:45:53.315Z,80.39
2022-10-22T13:48:23.756Z,80.50
2022-10-22T13:50:53.332Z,80.24
2022-10-22T13:53:23.373Z,79.54
2022-10-22T13:55:52.934Z,79.46
2022-10-22T13:58:24.896Z,79.63
2022-10-22T14:00:55.097Z,79.61
2022-10-22T14:03:26.769Z,79.60
2022-10-22T14:05:54.599Z,80.01
2022-10-22T14:08:24.519Z,79.29
2022-10-22T14:10:54.355Z,79.43
2022-10-22T14:13:21.745Z,79.51
2022-10-22T14:15:51.593Z,80.57
2022-10-22T14:18:23.281Z,80.05
2022-10-22T14:20:52.620Z,80.73
2022-10-22T14:23:23.020Z,80.94
2022-10-22T14:25:51.352Z,81.28
2022-10-22T14:28:20.150Z,81.70
2022-10-22T14:30:48.066Z,81.89
2022-10-22T14:33:18.218Z,82.19
2022-10-22T14:35:46.304Z,82.20
2022-10-22T14:38:13.824Z,81.99
2022-10-22T14:40:42.481Z,82.24
2022-10-22T14:43:11.951Z,81.39
2022-10-22T14:45:41.336Z,81.63
2022-10-22T14:48:08.708Z,81.16
2022-10-22T14:50:36.499Z,81.85
2022-10-22T14:53:03.932Z,81.53
2022-10-22T14:55:31.593Z,81.59
2022-10-22T14:57:58.979Z,81.12
2022-10-22T15:00:26.868Z,81.56
2022-10-22T15:02:55.838Z,81.26
2022-10-22T15:05:23.702Z,81.46
2022-10-22T15:07:51.045Z,81.03
2022-10-22T15:10:18.677Z,80.78
2022-10-22T15:12:46.526Z,80.16
2022-10-22T15:15:15.691Z,79.78
2022-10-22T15:17:44.233Z,80.00
2022-10-22T15:20:13.652Z,79.28
2022-10-22T15:22:41.335Z,78.93
2022-10-22T15:25:09.253Z,79.68
2022-10-22T15:27:36.773Z,78.75
2022-10-22T15:30:06.590Z,78.76
2022-10-22T15:32:34.108Z,79.27
2022-10-22T15:35:01.919Z,79.46
2022-10-22T15:37:30.969Z,80.03
2022-10-22T15:39:58.716Z,80.19
2022-10-22T15:42:26.121Z,80.46
2022-10-22T15:44:58.262Z,79.84
2022-10-22T15:47:25.557Z,79.75
2022-10-22T15:49:53.143Z,80.09
2022-10-22T15:52:20.507Z,80.00
2022-10-22T15:54:49.680Z,79.66
2022-10-22T15:57:17.082Z,79.17
2022-10-22T15:59:44.777Z,79.20
2022-10-22T16:02:12.094Z,79.06
2022-10-22T16:04:40.234Z,79.42
2022-10-22T16:07:07.511Z,79.84
2022-10-22T16:09:35.346Z,80.42
2022-10-22T16:12:04.644Z,79.89
2022-10-22T16:14:32.719Z,79.43
2022-10-22T16:17:03.049Z,79.33
2022-10-22T16:19:30.632Z,79.45
2022-10-22T16:21:57.940Z,79.05
2022-10-22T16:24:25.731Z,78.40
2022-10-22T16:26:52.972Z,78.09
2022-10-22T16:29:21.904Z,78.40
2022-10-22T16:31:49.189Z,78.15
2022-10-22T16:34:17.315Z,78.93
2022-10-22T16:36:44.856Z,78.61
2022-10-22T16:39:12.672Z,78.95
2022-10-22T16:41:39.816Z,79.05
2022-10-22T16:44:08.283Z,79.23
2022-10-22T16:46:37.155Z,80.12
2022-10-22T16:49:06.682Z,80.02
2022-10-22T16:51:34.841Z,80.15
2022-10-22T16:54:04.631Z,79.65
2022-10-22T16:56:34.297Z,79.61
2022-10-22T16:59:02.133Z,80.00
2022-10-22T17:01:30.046Z,78.97
2022-10-22T17:04:00.634Z,79.56
2022-10-22T17:06:28.301Z,79.52
2022-10-22T17:08:56.243Z,80.07
2022-10-22T17:11:24.445Z,79.93
2022-10-22T17:13:54.133Z,80.42
2022-10-22T17:16:23.514Z,81.58
2022-10-22T17:18:52.848Z,81.37
2022-10-22T17:21:22.630Z,81.96
2022-10-22T17:23:54.694Z,81.59
2022-10-22T17:26:22.903Z,81.32
2022-10-22T17:28:51.279Z,80.97
2022-10-22T17:31:20.794Z,81.46
2022-10-22T17:33:50.291Z,81.47
2022-10-22T17:36:18.906Z,80.51
2022-10-22T17:38:51.998Z,80.51
2022-10-22T17:41:21.972Z,80.58
2022-10-22T17:43:49.707Z,78.97
2022-10-22T17:46:19.341Z,79.25
2022-10-22T17:48:50.622Z,79.21
2022-10-22T17:51:18.946Z,79.25
2022-10-22T17:53:47.031Z,78.15
2022-10-22T17:56:18.127Z,78.15
2022-10-22T17:58:45.729Z,78.80
2022-10-22T18:01:19.105Z,78.38
2022-10-22T18:03:47.214Z,78.66
2022-10-22T18:06:14.649Z,78.94
2022-10-22T18:08:42.574Z,78.67
2022-10-22T18:11:12.738Z,79.13
2022-10-22T18:13:42.017Z,79.62
2022-10-22T18:16:09.576Z,79.42
2022-10-22T18:18:37.278Z,79.79
2022-10-22T18:21:05.347Z,79.46
2022-10-22T18:23:33.035Z,79.52
2022-10-22T18:26:00.568Z,79.84
2022-10-22T18:28:28.202Z,79.74
2022-10-22T18:30:57.038Z,79.41
2022-10-22T18:33:24.711Z,78.99
2022-10-22T18:35:53.334Z,79.14
2022-10-22T18:38:21.096Z,78.63
2022-10-22T18:40:49.738Z,78.04
2022-10-22T18:43:18.214Z,77.73
2022-10-22T18:45:46.853Z,77.98
2022-10-22T18:48:17.949Z,78.40
2022-10-22T18:50:46.612Z,78.97
2022-10-22T18:53:16.250Z,78.54
2022-10-22T18:55:44.508Z,78.78
2022-10-22T18:58:12.214Z,79.30
2022-10-22T19:00:39.852Z,79.49
2022-10-22T19:03:07.619Z,79.59
2022-10-22T19:05:45.522Z,79.65
2022-10-22T19:08:13.473Z,79.27
2022-10-22T19:10:40.922Z,79.34
2022-10-22T19:13:08.708Z,79.84
2022-10-22T19:15:36.217Z,79.11
2022-10-22T19:18:04.332Z,79.18
2022-10-22T19:20:31.814Z,78.90
2022-10-22T19:23:01.206Z,78.69
2022-10-22T19:25:29.242Z,78.79
2022-10-22T19:27:57.146Z,78.61
2022-10-22T19:30:24.789Z,78.84
2022-10-22T19:32:52.552Z,78.92
2022-10-22T19:35:19.988Z,78.44
2022-10-22T19:37:48.526Z,77.89
2022-10-22T19:40:17.697Z,78.47
2022-10-22T19:42:45.658Z,78.30
2022-10-22T19:45:13.135Z,78.80
2022-10-22T19:47:41.277Z,79.37
2022-10-22T19:50:08.955Z,79.32
2022-10-22T19:52:37.138Z,79.18
2022-10-22T19:55:05.083Z,78.79
2022-10-22T19:57:34.109Z,78.48
2022-10-22T20:00:01.604Z,78.43
2022-10-22T20:02:29.525Z,78.45
2022-10-22T20:04:56.908Z,77.98
2022-10-22T20:07:24.635Z,77.69
2022-10-22T20:09:51.982Z,77.83
2022-10-22T20:12:23.037Z,78.75
2022-10-22T20:14:51.939Z,78.32
2022-10-22T20:17:19.790Z,78.25
2022-10-22T20:19:47.395Z,77.63
2022-10-22T20:22:17.929Z,78.73
2022-10-22T20:24:46.215Z,78.21
2022-10-22T20:27:13.912Z,78.54
2022-10-22T20:29:41.444Z,78.20
2022-10-22T20:32:10.897Z,77.72
2022-10-22T20:34:38.178Z,78.12
2022-10-22T20:37:05.870Z,77.57
2022-10-22T20:39:33.160Z,76.86
2022-10-22T20:42:00.727Z,76.69
2022-10-22T20:44:27.943Z,76.45
2022-10-22T20:49:28.903Z,76.39
2022-10-22T20:51:56.542Z,76.33
2022-10-22T20:54:23.962Z,76.61
2022-10-22T20:56:51.512Z,76.41
2022-10-22T20:59:19.231Z,76.64
2022-10-22T21:01:48.913Z,76.09
2022-10-22T21:04:17.933Z,76.11
2022-10-22T21:06:47.707Z,76.02
2022-10-22T21:09:15.739Z,76.34
2022-10-22T21:11:44.504Z,76.23
2022-10-22T21:14:14.190Z,77.11
2022-10-22T21:16:50.236Z,76.69
2022-10-22T21:19:18.744Z,77.67
2022-10-22T21:21:47.843Z,77.30
2022-10-22T21:24:15.564Z,77.20
2022-10-22T21:26:43.923Z,76.79
2022-10-22T21:29:12.831Z,77.91
2022-10-22T21:31:40.670Z,78.15
2022-10-22T21:34:08.168Z,77.90
2022-10-22T21:36:35.900Z,78.23
2022-10-22T21:39:04.739Z,78.64
2022-10-22T21:41:32.808Z,77.80
2022-10-22T21:44:00.226Z,77.16
2022-10-22T21:46:28.702Z,77.51
2022-10-22T21:48:58.630Z,76.83
2022-10-22T21:51:27.299Z,76.66
2022-10-22T21:53:54.595Z,76.25
2022-10-22T21:56:25.954Z,76.50
2022-10-22T21:58:53.528Z,76.40
2022-10-22T22:01:21.559Z,76.51
2022-10-22T22:03:49.959Z,75.95
2022-10-22T22:06:21.367Z,75.28
2022-10-22T22:08:50.675Z,74.61
2022-10-22T22:11:20.472Z,73.86
2022-10-22T22:13:49.702Z,74.20
2022-10-22T22:16:25.396Z,73.58
2022-10-22T22:18:56.238Z,71.99
2022-10-22T22:21:24.861Z,71.92
2022-10-22T22:23:52.285Z,72.23
2022-10-22T22:26:28.710Z,72.47
2022-10-22T22:29:00.395Z,72.24
2022-10-22T22:31:30.632Z,70.76
2022-10-22T22:33:58.916Z,70.86
2022-10-22T22:36:26.849Z,69.87
2022-10-22T22:38:55.255Z,70.60
2022-10-22T22:41:23.814Z,70.98
2022-10-22T22:43:51.247Z,70.56
2022-10-22T22:46:23.271Z,69.61
2022-10-22T22:48:50.903Z,69.93
2022-10-22T22:51:19.149Z,70.79
2022-10-22T22:53:46.878Z,70.78
2022-10-22T22:56:17.106Z,71.10
2022-10-22T22:58:44.836Z,72.66
2022-10-22T23:01:16.817Z,72.83
2022-10-22T23:03:47.817Z,72.43
2022-10-22T23:06:16.382Z,72.50
2022-10-22T23:08:44.442Z,73.50
2022-10-22T23:11:13.823Z,73.55
2022-10-22T23:13:42.766Z,73.00
2022-10-22T23:16:14.381Z,73.43
2022-10-22T23:18:42.180Z,73.20
2022-10-22T23:21:14.788Z,73.13
2022-10-22T23:23:44.441Z,73.78
2022-10-22T23:26:13.113Z,73.69
2022-10-22T23:28:40.874Z,75.24
2022-10-22T23:31:12.384Z,75.45
2022-10-22T23:33:40.246Z,75.31
2022-10-22T23:36:08.132Z,73.54
2022-10-22T23:38:38.760Z,73.03
2022-10-22T23:41:08.044Z,72.54
2022-10-22T23:43:36.254Z,74.37
2022-10-22T23:46:05.132Z,74.49
2022-10-22T23:48:35.622Z,76.12
2022-10-22T23:51:05.022Z,74.44
2022-10-22T23:53:32.322Z,75.66
2022-10-22T23:56:05.939Z,75.44
2022-10-22T23:58:34.351Z,75.50
